createdAt,value
2018-07-03T00:00:44.455Z,17.75
2018-07-03T00:01:44.441Z,17.71
2018-07-03T00:02:44.436Z,17.70
2018-07-03T00:03:44.420Z,17.59
2018-07-03T00:04:44.479Z,17.54
2018-07-03T00:05:44.399Z,17.41
2018-07-03T00:06:44.383Z,17.46
2018-07-03T00:07:44.376Z,17.43
2018-07-03T00:08:44.367Z,17.33
2018-07-03T00:09:44.424Z,17.28
2018-07-03T00:10:44.346Z,17.43
2018-07-03T00:11:44.332Z,17.28
2018-07-03T00:12:44.320Z,17.11
2018-07-03T00:13:44.319Z,16.96
2018-07-03T00:14:44.362Z,17.00
2018-07-03T00:15:44.286Z,16.98
2018-07-03T00:16:44.276Z,16.97
2018-07-03T00:17:44.268Z,17.00
2018-07-03T00:18:44.256Z,16.93
2018-07-03T00:19:44.315Z,16.96
2018-07-03T00:20:44.227Z,17.03
2018-07-03T00:21:44.221Z,17.01
2018-07-03T00:22:44.211Z,16.97
2018-07-03T00:23:44.200Z,17.03
2018-07-03T00:24:44.261Z,16.97
2018-07-03T00:25:44.172Z,17.04
2018-07-03T00:26:44.162Z,17.06
2018-07-03T00:27:44.158Z,17.04
2018-07-03T00:28:44.144Z,17.04
2018-07-03T00:29:44.221Z,16.98
2018-07-03T00:30:44.126Z,16.81
2018-07-03T00:31:44.112Z,16.83
2018-07-03T00:32:44.094Z,16.78
2018-07-03T00:33:44.092Z,16.81
2018-07-03T00:34:44.148Z,16.81
2018-07-03T00:35:44.072Z,16.78
2018-07-03T00:36:44.059Z,16.73
2018-07-03T00:37:44.043Z,16.81
2018-07-03T00:38:44.040Z,16.79
2018-07-03T00:39:44.097Z,16.78
2018-07-03T00:40:44.012Z,16.76
2018-07-03T00:41:43.998Z,16.70
2018-07-03T00:42:43.992Z,16.68
2018-07-03T00:43:43.978Z,16.68
2018-07-03T00:44:44.035Z,16.71
2018-07-03T00:45:43.959Z,16.60
2018-07-03T00:46:43.944Z,16.50
2018-07-03T00:47:43.937Z,16.46
2018-07-03T00:48:43.924Z,16.46
2018-07-03T00:49:43.973Z,16.52
2018-07-03T00:50:43.902Z,16.56
2018-07-03T00:51:43.889Z,16.57
2018-07-03T00:52:43.877Z,16.46
2018-07-03T00:53:43.869Z,16.38
2018-07-03T00:54:43.931Z,16.41
2018-07-03T00:55:43.848Z,16.48
2018-07-03T00:56:43.836Z,16.41
2018-07-03T00:57:43.829Z,16.39
2018-07-03T00:58:43.812Z,16.45
2018-07-03T00:59:43.866Z,16.35
2018-07-03T01:00:43.791Z,16.42
2018-07-03T01:01:43.783Z,16.28
2018-07-03T01:02:43.770Z,16.23
2018-07-03T01:03:43.756Z,16.27
2018-07-03T01:04:43.824Z,16.14
2018-07-03T01:05:43.739Z,16.28
2018-07-03T01:06:43.731Z,16.33
2018-07-03T01:07:43.719Z,16.21
2018-07-03T01:08:43.705Z,16.27
2018-07-03T01:09:43.769Z,16.28
2018-07-03T01:10:43.682Z,16.24
2018-07-03T01:11:43.666Z,16.27
2018-07-03T01:12:43.662Z,16.27
2018-07-03T01:13:43.646Z,16.27
2018-07-03T01:14:43.711Z,16.20
2018-07-03T01:15:43.623Z,16.20
2018-07-03T01:16:43.617Z,16.14
2018-07-03T01:17:43.603Z,16.15
2018-07-03T01:18:43.592Z,16.11
2018-07-03T01:19:43.652Z,16.12
2018-07-03T01:20:43.568Z,16.05
2018-07-03T01:21:43.559Z,16.00
2018-07-03T01:22:43.553Z,16.07
2018-07-03T01:23:43.537Z,15.94
2018-07-03T01:24:43.594Z,15.96
2018-07-03T01:25:43.517Z,15.94
2018-07-03T01:26:43.504Z,15.93
2018-07-03T01:27:43.498Z,15.83
2018-07-03T01:28:43.480Z,15.86
2018-07-03T01:29:43.544Z,15.82
2018-07-03T01:30:43.463Z,15.75
2018-07-03T01:31:43.437Z,15.84
2018-07-03T01:32:43.441Z,15.76
2018-07-03T01:33:43.429Z,15.71
2018-07-03T01:34:43.482Z,15.74
2018-07-03T01:35:43.406Z,15.82
2018-07-03T01:36:43.397Z,15.80
2018-07-03T01:37:43.393Z,15.82
2018-07-03T01:38:43.373Z,15.83
2018-07-03T01:39:43.450Z,15.83
2018-07-03T01:40:43.348Z,15.82
2018-07-03T01:41:43.343Z,15.76
2018-07-03T01:42:43.328Z,15.72
2018-07-03T01:43:43.319Z,15.83
2018-07-03T01:44:43.307Z,15.76
2018-07-03T01:45:43.361Z,15.80
2018-07-03T01:46:43.284Z,15.74
2018-07-03T01:47:43.273Z,15.74
2018-07-03T01:48:43.263Z,15.71
2018-07-03T01:49:43.252Z,15.65
2018-07-03T01:50:43.308Z,15.69
2018-07-03T01:51:43.226Z,15.75
2018-07-03T01:52:43.221Z,15.68
2018-07-03T01:53:43.211Z,15.67
2018-07-03T01:54:43.197Z,15.64
2018-07-03T01:55:43.258Z,15.68
2018-07-03T01:56:43.174Z,15.68
2018-07-03T01:57:43.161Z,15.65
2018-07-03T01:58:43.154Z,15.60
2018-07-03T01:59:43.140Z,15.60
2018-07-03T02:00:43.201Z,15.57
2018-07-03T02:01:43.119Z,15.54
2018-07-03T02:02:43.103Z,15.57
2018-07-03T02:03:43.084Z,15.49
2018-07-03T02:04:43.084Z,15.51
2018-07-03T02:05:43.144Z,15.35
2018-07-03T02:06:43.063Z,15.38
2018-07-03T02:07:43.055Z,15.39
2018-07-03T02:08:43.039Z,15.41
2018-07-03T02:09:43.032Z,15.41
2018-07-03T02:10:43.088Z,15.28
2018-07-03T02:11:43.008Z,15.32
2018-07-03T02:12:42.996Z,15.32
2018-07-03T02:13:42.990Z,15.35
2018-07-03T02:14:42.976Z,15.38
2018-07-03T02:15:43.039Z,15.32
2018-07-03T02:16:42.953Z,15.34
2018-07-03T02:17:42.946Z,15.28
2018-07-03T02:18:42.925Z,15.23
2018-07-03T02:19:42.924Z,15.19
2018-07-03T02:20:42.978Z,15.20
2018-07-03T02:21:42.902Z,15.23
2018-07-03T02:22:42.893Z,15.21
2018-07-03T02:23:42.875Z,15.29
2018-07-03T02:24:42.861Z,15.23
2018-07-03T02:25:42.924Z,15.25
2018-07-03T02:26:42.842Z,15.27
2018-07-03T02:27:42.834Z,15.23
2018-07-03T02:28:42.819Z,15.25
2018-07-03T02:29:42.806Z,15.20
2018-07-03T02:30:42.865Z,15.21
2018-07-03T02:31:42.791Z,15.23
2018-07-03T02:32:42.850Z,15.21
2018-07-03T02:33:42.766Z,15.20
2018-07-03T02:34:42.755Z,15.23
2018-07-03T02:35:42.737Z,15.21
2018-07-03T02:36:42.735Z,15.13
2018-07-03T02:37:42.796Z,15.09
2018-07-03T02:38:42.711Z,15.11
2018-07-03T02:39:42.700Z,15.07
2018-07-03T02:40:42.686Z,15.11
2018-07-03T02:41:42.672Z,15.07
2018-07-03T02:42:42.739Z,15.13
2018-07-03T02:43:42.651Z,15.14
2018-07-03T02:44:42.647Z,14.96
2018-07-03T02:45:42.630Z,15.02
2018-07-03T02:46:42.623Z,15.06
2018-07-03T02:47:42.681Z,15.02
2018-07-03T02:48:42.599Z,14.94
2018-07-03T02:49:42.586Z,14.95
2018-07-03T02:50:42.579Z,14.98
2018-07-03T02:51:42.565Z,15.01
2018-07-03T02:52:42.625Z,14.98
2018-07-03T02:53:42.546Z,15.07
2018-07-03T02:54:42.537Z,14.98
2018-07-03T02:55:42.524Z,14.99
2018-07-03T02:56:42.510Z,14.96
2018-07-03T02:57:42.572Z,14.98
2018-07-03T02:58:42.485Z,14.96
2018-07-03T02:59:42.474Z,14.84
2018-07-03T03:00:42.464Z,14.73
2018-07-03T03:01:42.458Z,14.62
2018-07-03T03:02:42.512Z,14.54
2018-07-03T03:03:42.433Z,14.50
2018-07-03T03:04:42.423Z,14.47
2018-07-03T03:05:42.413Z,14.42
2018-07-03T03:06:42.399Z,14.33
2018-07-03T03:07:42.477Z,14.21
2018-07-03T03:08:42.376Z,14.20
2018-07-03T03:09:42.363Z,14.14
2018-07-03T03:10:42.358Z,14.09
2018-07-03T03:11:42.348Z,14.02
2018-07-03T03:12:42.420Z,13.91
2018-07-03T03:13:42.323Z,13.95
2018-07-03T03:14:42.315Z,14.00
2018-07-03T03:15:42.293Z,14.04
2018-07-03T03:16:42.291Z,14.17
2018-07-03T03:17:42.272Z,14.15
2018-07-03T03:18:42.336Z,14.15
2018-07-03T03:19:42.253Z,14.09
2018-07-03T03:20:42.241Z,14.22
2018-07-03T03:21:42.233Z,14.24
2018-07-03T03:22:42.220Z,14.27
2018-07-03T03:23:42.282Z,14.17
2018-07-03T03:24:42.200Z,14.10
2018-07-03T03:25:42.186Z,14.07
2018-07-03T03:26:42.173Z,14.09
2018-07-03T03:27:42.164Z,14.15
2018-07-03T03:28:42.227Z,14.18
2018-07-03T03:29:42.146Z,14.20
2018-07-03T03:30:42.134Z,14.20
2018-07-03T03:31:42.120Z,14.22
2018-07-03T03:32:42.108Z,14.27
2018-07-03T03:33:42.164Z,14.12
2018-07-03T03:34:42.084Z,14.18
2018-07-03T03:35:42.077Z,14.17
2018-07-03T03:36:42.067Z,14.07
2018-07-03T03:37:42.055Z,14.12
2018-07-03T03:38:42.097Z,14.09
2018-07-03T03:39:42.034Z,14.07
2018-07-03T03:40:42.020Z,14.03
2018-07-03T03:41:42.014Z,13.92
2018-07-03T03:42:41.988Z,13.82
2018-07-03T03:43:42.052Z,13.75
2018-07-03T03:44:41.975Z,13.67
2018-07-03T03:45:41.966Z,13.64
2018-07-03T03:46:41.956Z,13.59
2018-07-03T03:47:41.944Z,13.63
2018-07-03T03:48:42.004Z,13.54
2018-07-03T03:49:41.920Z,13.64
2018-07-03T03:50:41.914Z,13.64
2018-07-03T03:51:41.902Z,13.63
2018-07-03T03:52:41.889Z,13.63
2018-07-03T03:53:41.984Z,13.60
2018-07-03T03:54:41.866Z,13.66
2018-07-03T03:55:41.858Z,13.63
2018-07-03T03:56:41.844Z,13.69
2018-07-03T03:57:41.830Z,13.79
2018-07-03T03:58:41.891Z,13.88
2018-07-03T03:59:41.815Z,13.89
2018-07-03T04:00:41.797Z,13.99
2018-07-03T04:01:41.775Z,14.06
2018-07-03T04:02:41.779Z,14.07
2018-07-03T04:03:41.846Z,14.09
2018-07-03T04:04:41.777Z,14.10
2018-07-03T04:05:41.747Z,14.15
2018-07-03T04:06:41.733Z,14.07
2018-07-03T04:07:41.726Z,14.03
2018-07-03T04:08:41.783Z,14.04
2018-07-03T04:09:41.698Z,14.06
2018-07-03T04:10:41.691Z,14.07
2018-07-03T04:11:41.683Z,14.12
2018-07-03T04:12:41.674Z,14.15
2018-07-03T04:13:41.729Z,14.12
2018-07-03T04:14:41.647Z,14.12
2018-07-03T04:15:41.633Z,14.18
2018-07-03T04:16:41.628Z,14.20
2018-07-03T04:17:41.609Z,14.32
2018-07-03T04:18:41.670Z,14.35
2018-07-03T04:19:41.594Z,14.42
2018-07-03T04:20:41.576Z,14.28
2018-07-03T04:21:41.570Z,14.32
2018-07-03T04:22:41.544Z,14.32
2018-07-03T04:23:41.613Z,14.29
2018-07-03T04:24:41.544Z,14.36
2018-07-03T04:25:41.523Z,14.35
2018-07-03T04:26:41.510Z,14.32
2018-07-03T04:27:41.510Z,14.36
2018-07-03T04:28:41.567Z,14.33
2018-07-03T04:29:41.480Z,14.24
2018-07-03T04:30:41.470Z,14.27
2018-07-03T04:31:41.458Z,14.29
2018-07-03T04:32:41.447Z,14.28
2018-07-03T04:33:41.507Z,14.39
2018-07-03T04:34:41.424Z,14.46
2018-07-03T04:35:41.414Z,14.58
2018-07-03T04:36:41.403Z,14.61
2018-07-03T04:37:41.396Z,14.62
2018-07-03T04:38:41.456Z,14.62
2018-07-03T04:39:41.373Z,14.70
2018-07-03T04:40:41.357Z,14.58
2018-07-03T04:41:41.349Z,14.72
2018-07-03T04:42:41.339Z,14.70
2018-07-03T04:43:41.391Z,14.73
2018-07-03T04:44:41.315Z,14.77
2018-07-03T04:45:41.304Z,14.75
2018-07-03T04:46:41.289Z,14.83
2018-07-03T04:47:41.286Z,14.96
2018-07-03T04:48:41.345Z,15.06
2018-07-03T04:49:41.255Z,15.10
2018-07-03T04:50:41.255Z,15.25
2018-07-03T04:51:41.239Z,15.36
2018-07-03T04:52:41.222Z,15.50
2018-07-03T04:53:41.284Z,15.46
2018-07-03T04:54:41.206Z,15.53
2018-07-03T04:55:41.191Z,15.47
2018-07-03T04:56:41.179Z,15.36
2018-07-03T04:57:41.167Z,15.47
2018-07-03T04:58:41.230Z,15.54
2018-07-03T04:59:41.152Z,15.60
2018-07-03T05:00:41.133Z,15.68
2018-07-03T05:01:41.126Z,15.68
2018-07-03T05:02:41.111Z,15.76
2018-07-03T05:03:41.171Z,15.67
2018-07-03T05:04:41.095Z,15.62
2018-07-03T05:05:41.078Z,15.53
2018-07-03T05:06:41.066Z,15.36
2018-07-03T05:07:41.057Z,15.36
2018-07-03T05:08:41.124Z,15.36
2018-07-03T05:09:41.031Z,15.34
2018-07-03T05:10:41.023Z,15.38
2018-07-03T05:11:41.011Z,15.41
2018-07-03T05:12:41.007Z,15.41
2018-07-03T05:13:40.990Z,15.53
2018-07-03T05:14:41.046Z,15.71
2018-07-03T05:15:40.974Z,15.83
2018-07-03T05:16:40.958Z,16.02
2018-07-03T05:17:40.946Z,16.15
2018-07-03T05:18:40.937Z,16.38
2018-07-03T05:19:41.001Z,16.45
2018-07-03T05:20:40.908Z,16.50
2018-07-03T05:21:40.906Z,16.49
2018-07-03T05:22:40.896Z,16.52
2018-07-03T05:23:40.880Z,16.70
2018-07-03T05:24:40.958Z,16.76
2018-07-03T05:25:40.857Z,16.88
2018-07-03T05:26:40.845Z,16.94
2018-07-03T05:27:40.839Z,17.01
2018-07-03T05:28:40.827Z,17.06
2018-07-03T05:29:40.886Z,17.04
2018-07-03T05:30:40.807Z,16.94
2018-07-03T05:31:40.845Z,17.04
2018-07-03T05:32:40.791Z,17.11
2018-07-03T05:33:40.774Z,17.14
2018-07-03T05:34:40.832Z,17.21
2018-07-03T05:35:40.754Z,17.34
2018-07-03T05:36:40.740Z,17.51
2018-07-03T05:37:40.732Z,17.52
2018-07-03T05:38:40.727Z,17.63
2018-07-03T05:39:40.784Z,17.59
2018-07-03T05:40:40.695Z,17.70
2018-07-03T05:41:40.683Z,17.74
2018-07-03T05:42:40.670Z,17.75
2018-07-03T05:43:40.666Z,17.75
2018-07-03T05:44:40.736Z,17.77
2018-07-03T05:45:40.639Z,17.82
2018-07-03T05:46:40.632Z,17.81
2018-07-03T05:47:40.615Z,17.62
2018-07-03T05:48:40.607Z,17.63
2018-07-03T05:49:40.664Z,17.51
2018-07-03T05:50:40.583Z,17.51
2018-07-03T05:51:40.572Z,17.48
2018-07-03T05:52:40.566Z,17.48
2018-07-03T05:53:40.551Z,17.38
2018-07-03T05:54:40.600Z,17.41
2018-07-03T05:55:40.542Z,17.41
2018-07-03T05:56:40.518Z,17.48
2018-07-03T05:57:40.505Z,17.44
2018-07-03T05:58:40.538Z,17.48
2018-07-03T05:59:40.566Z,17.56
2018-07-03T06:00:40.473Z,17.55
2018-07-03T06:01:40.467Z,17.59
2018-07-03T06:02:40.446Z,17.66
2018-07-03T06:03:40.434Z,17.63
2018-07-03T06:04:40.491Z,17.62
2018-07-03T06:05:40.412Z,17.74
2018-07-03T06:06:40.402Z,17.84
2018-07-03T06:07:40.393Z,17.87
2018-07-03T06:08:40.382Z,17.90
2018-07-03T06:09:40.445Z,17.87
2018-07-03T06:10:40.363Z,17.93
2018-07-03T06:11:40.348Z,17.89
2018-07-03T06:12:40.346Z,18.05
2018-07-03T06:13:40.330Z,17.99
2018-07-03T06:14:40.383Z,18.07
2018-07-03T06:15:40.303Z,17.96
2018-07-03T06:16:40.289Z,18.10
2018-07-03T06:17:40.283Z,18.15
2018-07-03T06:18:40.507Z,18.23
2018-07-03T06:19:40.328Z,18.15
2018-07-03T06:20:40.254Z,18.37
2018-07-03T06:21:40.237Z,18.52
2018-07-03T06:22:40.269Z,18.69
2018-07-03T06:23:40.219Z,18.90
2018-07-03T06:24:40.276Z,18.98
2018-07-03T06:25:40.192Z,19.13
2018-07-03T06:26:40.186Z,19.22
2018-07-03T06:27:40.170Z,19.39
2018-07-03T06:28:40.157Z,19.62
2018-07-03T06:29:40.223Z,19.68
2018-07-03T06:30:40.139Z,19.91
2018-07-03T06:31:40.132Z,20.06
2018-07-03T06:32:40.118Z,20.08
2018-07-03T06:33:40.102Z,20.28
2018-07-03T06:34:40.162Z,20.23
2018-07-03T06:35:40.093Z,20.35
2018-07-03T06:36:40.070Z,20.47
2018-07-03T06:37:40.134Z,20.48
2018-07-03T06:38:40.069Z,20.72
2018-07-03T06:39:40.109Z,20.76
2018-07-03T06:40:40.031Z,20.84
2018-07-03T06:41:40.025Z,20.95
2018-07-03T06:42:40.018Z,21.06
2018-07-03T06:43:39.993Z,21.10
2018-07-03T06:44:40.062Z,21.27
2018-07-03T06:45:39.968Z,21.37
2018-07-03T06:46:39.972Z,21.53
2018-07-03T06:47:39.935Z,21.43
2018-07-03T06:48:39.940Z,21.29
2018-07-03T06:49:40.009Z,21.49
2018-07-03T06:50:39.916Z,21.56
2018-07-03T06:51:39.924Z,21.68
2018-07-03T06:52:39.903Z,21.77
2018-07-03T06:53:39.885Z,21.86
2018-07-03T06:54:39.970Z,21.91
2018-07-03T06:55:40.055Z,21.91
2018-07-03T06:56:39.869Z,21.92
2018-07-03T06:57:40.027Z,22.09
2018-07-03T07:01:14.552Z,21.92
2018-07-03T07:02:14.484Z,21.94
2018-07-03T07:03:14.504Z,21.94
2018-07-03T07:04:14.436Z,21.82
2018-07-03T07:05:14.494Z,21.90
2018-07-03T07:06:14.414Z,21.94
2018-07-03T07:07:14.403Z,21.84
2018-07-03T07:08:14.387Z,21.86
2018-07-03T07:09:14.480Z,21.88
2018-07-03T07:10:14.457Z,22.05
2018-07-03T07:11:14.358Z,22.12
2018-07-03T07:12:14.348Z,22.18
2018-07-03T07:13:14.336Z,22.21
2018-07-03T07:14:14.322Z,22.39
2018-07-03T07:15:14.368Z,22.52
2018-07-03T07:16:14.303Z,22.57
2018-07-03T07:17:14.297Z,22.52
2018-07-03T07:18:14.291Z,22.61
2018-07-03T07:19:14.376Z,22.70
2018-07-03T07:20:14.368Z,22.64
2018-07-03T07:21:14.251Z,22.64
2018-07-03T07:22:14.239Z,22.75
2018-07-03T07:23:14.272Z,22.80
2018-07-03T07:24:14.217Z,22.85
2018-07-03T07:25:14.376Z,22.86
2018-07-03T07:26:14.192Z,22.94
2018-07-03T07:27:14.182Z,22.86
2018-07-03T07:28:14.174Z,22.95
2018-07-03T07:29:14.216Z,22.92
2018-07-03T07:30:14.207Z,23.01
2018-07-03T07:31:14.139Z,22.95
2018-07-03T07:32:14.130Z,22.82
2018-07-03T07:33:14.115Z,22.77
2018-07-03T07:34:15.177Z,22.70
2018-07-03T07:35:14.152Z,22.82
2018-07-03T07:36:14.082Z,23.01
2018-07-03T07:37:14.071Z,23.02
2018-07-03T07:38:14.063Z,23.22
2018-07-03T07:39:14.051Z,23.23
2018-07-03T07:40:14.105Z,23.33
2018-07-03T07:41:14.029Z,23.28
2018-07-03T07:42:14.025Z,23.19
2018-07-03T07:43:14.012Z,23.19
2018-07-03T07:44:13.994Z,23.32
2018-07-03T07:45:14.053Z,23.42
2018-07-03T07:46:13.974Z,23.46
2018-07-03T07:47:13.961Z,23.48
2018-07-03T07:48:13.954Z,23.60
2018-07-03T07:49:13.947Z,23.63
2018-07-03T07:50:13.928Z,23.63
2018-07-03T07:51:14.013Z,23.58
2018-07-03T07:52:14.047Z,23.53
2018-07-03T07:53:13.990Z,23.51
2018-07-03T07:54:14.000Z,23.47
2018-07-03T07:55:13.997Z,23.53
2018-07-03T07:56:14.028Z,23.47
2018-07-03T07:57:14.052Z,23.46
2018-07-03T07:58:13.888Z,23.55
2018-07-03T07:59:13.855Z,23.63
2018-07-03T08:00:13.890Z,23.70
2018-07-03T08:01:13.871Z,23.68
2018-07-03T08:02:13.802Z,23.70
2018-07-03T08:03:13.938Z,23.69
2018-07-03T08:04:13.879Z,23.75
2018-07-03T08:05:13.870Z,23.68
2018-07-03T08:06:13.847Z,23.65
2018-07-03T08:07:13.816Z,23.72
2018-07-03T08:08:13.756Z,23.69
2018-07-03T08:09:13.736Z,23.78
2018-07-03T08:10:13.865Z,23.76
2018-07-03T08:11:13.864Z,23.76
2018-07-03T08:12:13.691Z,23.90
2018-07-03T08:13:13.715Z,24.05
2018-07-03T08:14:13.685Z,24.06
2018-07-03T08:15:13.677Z,24.10
2018-07-03T08:16:13.735Z,24.09
2018-07-03T08:17:13.652Z,24.37
2018-07-03T08:18:13.657Z,24.30
2018-07-03T08:19:13.685Z,24.47
2018-07-03T08:20:13.600Z,24.52
2018-07-03T08:21:13.683Z,24.68
2018-07-03T08:22:13.613Z,24.84
2018-07-03T08:23:13.570Z,24.95
2018-07-03T08:24:13.580Z,24.99
2018-07-03T08:25:13.556Z,25.05
2018-07-03T08:26:13.613Z,25.05
2018-07-03T08:27:13.520Z,24.96
2018-07-03T08:28:13.512Z,24.95
2018-07-03T08:29:13.508Z,25.02
2018-07-03T08:30:13.499Z,25.15
2018-07-03T08:31:13.568Z,25.14
2018-07-03T08:32:13.607Z,25.18
2018-07-03T08:33:13.459Z,25.08
2018-07-03T08:34:13.454Z,25.24
2018-07-03T08:35:13.453Z,25.13
2018-07-03T08:36:13.639Z,25.27
2018-07-03T08:37:13.413Z,25.43
2018-07-03T08:38:13.400Z,25.45
2018-07-03T08:39:13.406Z,25.54
2018-07-03T08:40:13.400Z,25.52
2018-07-03T08:41:13.496Z,25.47
2018-07-03T08:42:13.389Z,25.57
2018-07-03T08:43:13.366Z,25.47
2018-07-03T08:44:13.383Z,25.54
2018-07-03T08:45:13.404Z,25.57
2018-07-03T08:46:13.395Z,25.72
2018-07-03T08:47:13.325Z,25.72
2018-07-03T08:48:13.310Z,25.77
2018-07-03T08:49:13.283Z,25.90
2018-07-03T08:50:13.283Z,25.90
2018-07-03T08:51:13.355Z,25.94
2018-07-03T08:52:13.551Z,25.92
2018-07-03T08:53:13.248Z,25.98
2018-07-03T08:54:13.246Z,25.97
2018-07-03T08:55:13.328Z,26.01
2018-07-03T08:56:13.288Z,26.13
2018-07-03T08:57:15.610Z,26.12
2018-07-03T08:58:13.210Z,26.12
2018-07-03T08:59:13.213Z,26.18
2018-07-03T09:00:13.187Z,26.20
2018-07-03T09:01:13.225Z,26.21
2018-07-03T09:02:13.152Z,26.25
2018-07-03T09:03:13.392Z,26.39
2018-07-03T09:04:13.477Z,26.33
2018-07-03T09:05:13.122Z,26.39
2018-07-03T09:06:13.260Z,26.39
2018-07-03T09:07:13.095Z,26.40
2018-07-03T09:08:13.112Z,26.43
2018-07-03T09:10:47.856Z,26.50
2018-07-03T09:11:48.059Z,26.50
2018-07-03T09:12:47.982Z,26.40
2018-07-03T09:13:47.874Z,26.47
2018-07-03T09:14:47.801Z,26.54
2018-07-03T09:15:47.805Z,26.48
2018-07-03T09:16:47.846Z,26.47
2018-07-03T09:17:47.794Z,26.43
2018-07-03T09:18:47.982Z,26.44
2018-07-03T09:19:47.812Z,26.57
2018-07-03T09:20:48.755Z,26.54
2018-07-03T09:21:47.839Z,26.55
2018-07-03T09:22:47.706Z,26.62
2018-07-03T09:23:47.800Z,26.58
2018-07-03T09:24:47.709Z,26.60
2018-07-03T09:25:47.858Z,26.58
2018-07-03T09:26:47.725Z,26.63
2018-07-03T09:27:47.690Z,26.50
2018-07-03T09:28:47.643Z,26.58
2018-07-03T09:29:47.631Z,26.62
2018-07-03T09:30:47.641Z,26.69
2018-07-03T09:31:47.665Z,26.67
2018-07-03T09:32:47.598Z,26.76
2018-07-03T09:33:47.588Z,26.81
2018-07-03T09:34:47.574Z,26.82
2018-07-03T09:35:47.560Z,26.89
2018-07-03T09:36:47.721Z,26.92
2018-07-03T09:37:47.549Z,26.88
2018-07-03T09:38:47.531Z,26.70
2018-07-03T09:39:47.532Z,26.63
2018-07-03T09:40:47.506Z,26.65
2018-07-03T09:41:47.571Z,26.73
2018-07-03T09:42:47.572Z,26.54
2018-07-03T09:43:47.474Z,26.65
2018-07-03T09:44:47.465Z,26.66
2018-07-03T09:45:47.515Z,26.91
2018-07-03T09:46:47.496Z,27.06
2018-07-03T09:47:47.435Z,27.17
2018-07-03T09:48:47.589Z,27.09
2018-07-03T09:49:47.408Z,27.14
2018-07-03T09:50:47.398Z,27.39
2018-07-03T09:51:47.460Z,27.40
2018-07-03T09:52:47.374Z,27.34
2018-07-03T09:53:47.374Z,27.32
2018-07-03T09:54:47.369Z,27.41
2018-07-03T09:55:48.228Z,27.36
2018-07-03T09:56:47.469Z,27.29
2018-07-03T09:57:47.381Z,27.36
2018-07-03T09:58:47.371Z,27.50
2018-07-03T09:59:47.304Z,27.54
2018-07-03T10:00:47.294Z,27.62
2018-07-03T10:01:47.342Z,27.72
2018-07-03T10:02:47.272Z,27.69
2018-07-03T10:03:47.258Z,27.72
2018-07-03T10:04:47.254Z,27.60
2018-07-03T10:05:47.237Z,27.34
2018-07-03T10:06:47.289Z,27.27
2018-07-03T10:07:47.221Z,27.29
2018-07-03T10:08:47.207Z,27.27
2018-07-03T10:09:47.196Z,27.32
2018-07-03T10:10:47.184Z,27.37
2018-07-03T10:11:47.254Z,27.44
2018-07-03T10:12:47.163Z,27.54
2018-07-03T10:13:47.152Z,27.46
2018-07-03T10:14:47.138Z,27.59
2018-07-03T10:15:47.129Z,27.72
2018-07-03T10:16:47.267Z,27.78
2018-07-03T10:17:47.217Z,27.63
2018-07-03T10:18:47.124Z,27.67
2018-07-03T10:19:47.085Z,27.75
2018-07-03T10:20:47.099Z,27.93
2018-07-03T10:21:47.170Z,27.87
2018-07-03T10:22:47.064Z,27.87
2018-07-03T10:23:47.060Z,27.99
2018-07-03T10:24:47.047Z,28.02
2018-07-03T10:25:47.040Z,28.03
2018-07-03T10:26:47.069Z,28.09
2018-07-03T10:27:47.005Z,27.88
2018-07-03T10:28:47.001Z,27.79
2018-07-03T10:29:46.982Z,27.67
2018-07-03T10:30:46.975Z,27.66
2018-07-03T10:31:47.070Z,27.69
2018-07-03T10:32:47.005Z,27.81
2018-07-03T10:33:46.953Z,28.00
2018-07-03T10:34:46.936Z,28.06
2018-07-03T10:35:46.926Z,28.15
2018-07-03T10:36:46.926Z,28.14
2018-07-03T10:37:47.011Z,28.17
2018-07-03T10:38:46.891Z,28.27
2018-07-03T10:39:46.885Z,28.31
2018-07-03T10:40:46.947Z,28.19
2018-07-03T10:41:46.858Z,28.07
2018-07-03T10:42:46.901Z,28.00
2018-07-03T10:43:46.990Z,28.11
2018-07-03T10:44:46.873Z,28.15
2018-07-03T10:45:46.816Z,28.21
2018-07-03T10:46:46.819Z,28.07
2018-07-03T10:47:46.965Z,28.11
2018-07-03T10:48:46.789Z,28.36
2018-07-03T10:49:46.773Z,28.41
2018-07-03T10:50:46.773Z,28.33
2018-07-03T10:51:47.467Z,28.37
2018-07-03T10:52:46.810Z,28.40
2018-07-03T10:53:46.734Z,28.27
2018-07-03T10:54:46.715Z,28.06
2018-07-03T10:55:46.718Z,28.07
2018-07-03T10:56:46.698Z,28.14
2018-07-03T10:57:46.761Z,28.15
2018-07-03T10:58:46.686Z,28.18
2018-07-03T10:59:46.699Z,28.25
2018-07-03T11:00:46.662Z,28.49
2018-07-03T11:01:46.648Z,28.56
2018-07-03T11:02:46.769Z,28.51
2018-07-03T11:03:46.633Z,28.37
2018-07-03T11:04:46.616Z,28.43
2018-07-03T11:05:46.679Z,28.21
2018-07-03T11:06:46.596Z,28.19
2018-07-03T11:07:46.661Z,28.21
2018-07-03T11:08:46.575Z,28.37
2018-07-03T11:09:46.608Z,28.58
2018-07-03T11:10:46.549Z,28.80
2018-07-03T11:11:46.551Z,29.05
2018-07-03T11:12:46.587Z,29.31
2018-07-03T11:13:46.599Z,29.45
2018-07-03T11:14:46.537Z,29.33
2018-07-03T11:15:46.509Z,29.08
2018-07-03T11:16:46.492Z,28.92
2018-07-03T11:17:46.552Z,28.74
2018-07-03T11:18:46.502Z,28.95
2018-07-03T11:19:46.859Z,28.92
2018-07-03T11:20:46.464Z,28.77
2018-07-03T11:21:46.467Z,29.02
2018-07-03T11:22:46.499Z,29.21
2018-07-03T11:23:46.403Z,29.31
2018-07-03T11:24:46.395Z,29.23
2018-07-03T11:25:46.381Z,29.14
2018-07-03T11:26:46.379Z,29.09
2018-07-03T11:27:46.417Z,28.68
2018-07-03T11:28:46.450Z,28.36
2018-07-03T11:29:46.340Z,28.44
2018-07-03T11:30:46.328Z,27.94
2018-07-03T11:31:46.321Z,27.67
2018-07-03T11:32:47.064Z,27.85
2018-07-03T11:33:46.334Z,28.06
2018-07-03T11:34:46.297Z,28.31
2018-07-03T11:35:46.288Z,28.14
2018-07-03T11:36:46.969Z,28.04
2018-07-03T11:37:46.330Z,28.18
2018-07-03T11:38:46.247Z,28.43
2018-07-03T11:39:46.273Z,28.43
2018-07-03T11:40:46.248Z,28.44
2018-07-03T11:41:46.218Z,28.62
2018-07-03T11:42:46.296Z,28.49
2018-07-03T11:43:46.203Z,28.43
2018-07-03T11:44:46.201Z,28.21
2018-07-03T11:49:20.674Z,29.33
2018-07-03T11:50:20.645Z,29.49
2018-07-03T11:51:20.607Z,29.45
2018-07-03T11:52:20.726Z,29.57
2018-07-03T11:53:20.615Z,29.61
2018-07-03T11:54:20.545Z,29.65
2018-07-03T11:55:21.374Z,29.74
2018-07-03T11:56:21.276Z,30.01
2018-07-03T11:57:20.524Z,30.00
2018-07-03T11:58:20.585Z,29.95
2018-07-03T11:59:20.492Z,29.85
2018-07-03T12:00:20.478Z,29.95
2018-07-03T12:01:20.691Z,29.82
2018-07-03T12:02:20.456Z,29.64
2018-07-03T12:03:20.531Z,29.45
2018-07-03T12:04:20.443Z,29.39
2018-07-03T12:05:20.630Z,29.43
2018-07-03T12:08:23.140Z,29.82
2018-07-03T12:09:21.090Z,29.87
2018-07-03T12:10:21.114Z,30.01
2018-07-03T12:11:21.035Z,30.27
2018-07-03T12:12:21.017Z,30.23
2018-07-03T12:13:21.069Z,30.05
2018-07-03T12:14:21.008Z,29.87
2018-07-03T12:15:20.990Z,29.67
2018-07-03T12:16:20.974Z,29.51
2018-07-03T12:17:20.965Z,29.36
2018-07-03T12:18:21.018Z,29.53
2018-07-03T12:19:20.955Z,29.74
2018-07-03T12:20:20.983Z,29.95
2018-07-03T12:21:20.932Z,29.97
2018-07-03T12:22:20.909Z,29.92
2018-07-03T12:23:20.964Z,29.97
2018-07-03T12:24:20.895Z,30.04
2018-07-03T12:25:20.891Z,29.97
2018-07-03T12:26:20.867Z,29.98
2018-07-03T12:27:20.867Z,30.04
2018-07-03T12:28:20.914Z,29.98
2018-07-03T12:29:20.855Z,30.07
2018-07-03T12:30:20.834Z,30.27
2018-07-03T12:31:20.824Z,30.32
2018-07-03T12:32:20.812Z,30.46
2018-07-03T12:33:20.859Z,30.46
2018-07-03T12:34:20.795Z,30.54
2018-07-03T12:35:20.791Z,30.61
2018-07-03T12:36:20.771Z,30.84
2018-07-03T12:37:20.786Z,30.97
2018-07-03T12:38:20.826Z,30.89
2018-07-03T12:39:20.736Z,30.84
2018-07-03T12:40:20.729Z,30.73
2018-07-03T12:41:20.850Z,30.72
2018-07-03T12:42:20.721Z,30.84
2018-07-03T12:43:20.752Z,30.67
2018-07-03T12:44:20.695Z,30.31
2018-07-03T12:45:20.751Z,30.27
2018-07-03T12:46:20.665Z,30.27
2018-07-03T12:47:20.649Z,30.24
2018-07-03T12:48:23.453Z,29.97
2018-07-03T12:49:20.634Z,30.13
2018-07-03T12:50:20.620Z,30.05
2018-07-03T12:51:20.611Z,30.01
2018-07-03T12:52:20.779Z,29.98
2018-07-03T12:53:21.176Z,30.08
2018-07-03T12:54:20.841Z,29.97
2018-07-03T12:55:20.890Z,29.89
2018-07-03T12:56:20.852Z,30.05
2018-07-03T12:57:21.720Z,30.26
2018-07-03T12:58:20.787Z,30.42
2018-07-03T12:59:20.747Z,30.84
2018-07-03T13:00:20.703Z,31.10
2018-07-03T13:01:20.759Z,31.28
2018-07-03T13:02:20.769Z,31.41